Nemo, South Dakota
Current Conditions -  °F | °C
As of 6:58 AM on Saturday 22 Nov 2014 (Local Time) from KRCA Reporting Station
Broken Clouds Broken Clouds  
Wind Chill: 24°   Ceiling: 16000
Heat Index: 33°   Visibility: 10mi
Dew Point: 24°   Wind: 10mph
Humidity: 69%   Direction: 200°SSW
Pressure: 29.5"   Gusts: NA
Location:  44.19°N, 103.51°W
Report Text: KRCA 221358Z AUTO 20009KT 10SM BKN160 00/M05 A2950 RMK AO2 SLP015 T00031047 $
Loading
Personal Weather Stations






























Interactive Weather Map New forecast layout! Learn more

10-Day Weather Forecast

Advertisements
Track Severe Weather on mobile